Time;durP1;ratioP1;P1;durP2;ratioP2;P2;SDS_P1;SDS_P2;PMS_P1;PMS_P2;Temp;Humidity;BMP_temperature;BMP_pressure;BME280_temperature;BME280_humidity;BME280_pressure;Samples;Min_cycle;Max_cycle;Signal;HPM_P1;HPM_P2
2022/10/17 00:01:34;;;;;;;7.50;4.00;;;;;;;12.90;96.40;101502.91;5014586;28;20033;-78
2022/10/17 00:03:59;;;;;;;6.05;3.95;;;;;;;12.92;96.65;101508.09;5013796;28;20543;-78
2022/10/17 00:06:25;;;;;;;6.80;4.32;;;;;;;12.92;96.48;101502.88;5013825;28;20046;-78
2022/10/17 00:08:50;;;;;;;4.50;3.80;;;;;;;12.92;96.72;101502.88;5014425;28;20470;-78
2022/10/17 00:11:18;;;;;;;6.13;4.15;;;;;;;12.92;96.84;101505.50;5013494;28;20064;-78
2022/10/17 00:13:45;;;;;;;5.10;4.13;;;;;;;12.92;96.82;101505.50;5013693;28;20137;-78
2022/10/17 00:16:10;;;;;;;5.95;4.30;;;;;;;12.91;96.58;101502.00;5013711;28;20091;-78
2022/10/17 00:18:35;;;;;;;5.68;4.30;;;;;;;12.92;96.64;101503.72;5014417;28;20481;-78
2022/10/17 00:21:01;;;;;;;6.65;4.07;;;;;;;12.92;96.88;101498.50;5014883;28;20058;-78
2022/10/17 00:23:27;;;;;;;7.03;3.83;;;;;;;12.92;96.84;101506.34;5014477;28;20097;-78
2022/10/17 00:26:01;;;;;;;5.63;4.05;;;;;;;12.93;97.35;101504.59;5013354;28;20045;-78
2022/10/17 00:28:26;;;;;;;5.95;4.03;;;;;;;12.94;97.18;101495.88;5014121;28;20026;-78
2022/10/17 00:30:56;;;;;;;5.28;4.25;;;;;;;12.94;97.29;101490.66;5013574;28;20065;-78
2022/10/17 00:33:22;;;;;;;6.45;4.22;;;;;;;12.94;97.28;101488.03;5014202;28;20026;-78
2022/10/17 00:35:47;;;;;;;5.13;3.95;;;;;;;12.95;97.21;101493.22;5013943;28;20101;-78
2022/10/17 00:38:12;;;;;;;7.65;4.35;;;;;;;12.95;97.20;101487.97;5012381;28;20044;-78
2022/10/17 00:40:37;;;;;;;5.65;4.18;;;;;;;12.96;97.26;101491.47;5014269;28;20499;-78
2022/10/17 00:43:03;;;;;;;5.68;4.15;;;;;;;12.95;97.32;101487.13;5012962;28;20072;-79
2022/10/17 00:45:30;;;;;;;5.85;4.07;;;;;;;12.96;97.57;101484.47;5013041;28;20042;-78
2022/10/17 00:48:04;;;;;;;5.13;4.10;;;;;;;12.96;97.79;101481.88;4995179;28;20394;-78
2022/10/17 00:50:29;;;;;;;6.88;4.22;;;;;;;12.96;97.79;101479.25;5014471;28;20053;-78
2022/10/17 00:53:00;;;;;;;5.40;4.13;;;;;;;12.97;97.76;101480.97;5013249;28;20061;-78
2022/10/17 00:55:41;;;;;;;7.30;4.50;;;;;;;12.98;97.88;101477.47;5013583;28;20083;-78
2022/10/17 00:58:06;;;;;;;5.60;4.50;;;;;;;12.99;97.72;101480.91;5011709;28;20026;-78
2022/10/17 01:00:31;;;;;;;7.60;4.18;;;;;;;12.98;97.76;101474.84;5013859;28;20474;-78
2022/10/17 01:02:57;;;;;;;7.82;4.40;;;;;;;13.00;97.89;101487.84;5013573;28;20382;-78
2022/10/17 01:05:22;;;;;;;7.10;4.50;;;;;;;12.99;98.09;101481.78;5012799;28;20037;-78
2022/10/17 01:07:51;;;;;;;6.22;4.63;;;;;;;13.01;98.02;101481.75;5011346;28;20504;-78
2022/10/17 01:10:17;;;;;;;6.68;4.32;;;;;;;13.01;98.43;101486.97;5014270;28;20485;-78
2022/10/17 01:13:12;;;;;;;6.85;4.47;;;;;;;13.02;98.63;101484.31;5012747;28;20029;-78
2022/10/17 01:15:43;;;;;;;6.20;4.45;;;;;;;13.05;98.66;101478.16;5011912;28;20026;-78
2022/10/17 01:18:12;;;;;;;6.75;4.32;;;;;;;13.05;98.57;101475.53;5013115;28;20168;-78
2022/10/17 01:20:56;;;;;;;6.93;4.20;;;;;;;13.06;98.90;101472.88;5013099;28;20062;-78
2022/10/17 01:23:32;;;;;;;5.80;4.35;;;;;;;13.08;98.90;101470.25;5012826;28;20535;-78
2022/10/17 01:26:15;;;;;;;6.28;4.40;;;;;;;13.10;99.09;101470.19;5013394;28;20022;-78
2022/10/17 01:29:17;;;;;;;7.45;4.78;;;;;;;13.12;99.63;101474.50;5012841;28;20041;-78
2022/10/17 01:31:57;;;;;;;6.57;5.00;;;;;;;13.16;99.93;101476.13;5013644;28;20117;-78
2022/10/17 01:34:38;;;;;;;6.50;4.93;;;;;;;13.20;100.00;101467.31;5010194;28;20093;-78
2022/10/17 01:37:20;;;;;;;6.20;4.97;;;;;;;13.24;100.00;101477.69;5013082;28;20037;-78
2022/10/17 01:39:50;;;;;;;8.07;5.50;;;;;;;13.27;100.00;101472.38;5007693;28;20030;-78
2022/10/17 01:42:22;;;;;;;10.27;5.28;;;;;;;13.29;100.00;101473.19;5014224;28;20068;-78
2022/10/17 01:45:00;;;;;;;6.90;5.05;;;;;;;13.30;100.00;101462.69;5011058;28;20081;-78
2022/10/17 01:47:30;;;;;;;8.23;5.10;;;;;;;13.33;100.00;101472.19;5010389;28;20073;-78
2022/10/17 01:50:01;;;;;;;7.40;5.20;;;;;;;13.33;100.00;101457.38;5012215;28;20057;-78
2022/10/17 01:52:32;;;;;;;6.18;5.13;;;;;;;13.36;100.00;101453.81;5013021;28;20562;-78
2022/10/17 01:55:10;;;;;;;;;;;;;;;13.40;99.77;101462.44;5013098;28;20057;-78
2022/10/17 01:57:40;;;;;;;8.55;5.05;;;;;;;13.39;100.00;101458.97;5010232;28;20495;-78
2022/10/17 02:00:10;;;;;;;6.57;5.05;;;;;;;13.39;100.00;101451.13;4994619;28;20069;-78
2022/10/17 02:02:36;;;;;;;8.05;5.15;;;;;;;13.39;100.00;101452.91;5012861;28;20029;-78
2022/10/17 02:05:03;;;;;;;6.45;5.00;;;;;;;13.39;100.00;101451.13;5011442;28;20029;-79
2022/10/17 02:07:28;;;;;;;7.85;4.85;;;;;;;13.41;100.00;101448.53;5013349;28;20049;-78
2022/10/17 02:09:53;;;;;;;6.53;5.13;;;;;;;13.40;100.00;101458.09;5011141;28;20033;-78
2022/10/17 02:12:42;;;;;;;7.53;5.22;;;;;;;13.41;100.00;101449.38;5011796;28;20030;-78
2022/10/17 02:15:32;;;;;;;6.95;5.32;;;;;;;13.42;100.00;101452.81;5009734;28;20025;-78
2022/10/17 02:18:15;;;;;;;8.43;5.38;;;;;;;13.42;100.00;101453.69;5008043;28;20022;-78
2022/10/17 02:20:55;;;;;;;11.25;5.15;;;;;;;13.42;100.00;101451.06;5012198;28;20025;-78
2022/10/17 02:23:53;;;;;;;9.63;5.82;;;;;;;13.43;100.00;101446.69;5012654;28;20291;-78
2022/10/17 02:26:31;;;;;;;7.15;5.32;;;;;;;13.44;100.00;101443.19;4945679;28;20179;-78
2022/10/17 02:29:08;;;;;;;9.15;5.20;;;;;;;13.43;100.00;101441.47;5012731;28;20034;-78
2022/10/17 02:31:48;;;;;;;7.32;5.38;;;;;;;13.43;100.00;101452.78;5012145;28;20079;-78
2022/10/17 02:34:35;;;;;;;6.70;5.50;;;;;;;13.42;100.00;101451.06;5012206;28;20034;-78
2022/10/17 02:37:04;;;;;;;7.05;5.63;;;;;;;13.43;100.00;101451.91;5004121;28;20481;-78
2022/10/17 02:39:31;;;;;;;7.45;5.63;;;;;;;13.42;100.00;101448.47;5011895;28;20032;-78
2022/10/17 02:42:02;;;;;;;7.40;5.82;;;;;;;13.43;100.00;101447.56;5011961;28;20030;-78
2022/10/17 02:44:30;;;;;;;12.15;5.80;;;;;;;13.45;100.00;101448.38;5011868;28;20022;-78
2022/10/17 02:47:05;;;;;;;8.00;6.25;;;;;;;13.45;100.00;101445.78;5011103;28;20054;-78
2022/10/17 02:49:38;;;;;;;8.73;6.20;;;;;;;13.46;100.00;101447.47;5011928;28;20017;-78
2022/10/17 02:52:13;;;;;;;7.78;5.43;;;;;;;13.48;100.00;101440.47;4999118;28;20097;-78
2022/10/17 02:54:47;;;;;;;7.22;5.78;;;;;;;13.48;100.00;101445.69;4993579;28;20033;-79
2022/10/17 02:57:39;;;;;;;8.90;6.10;;;;;;;13.48;100.00;101445.69;4993560;28;20326;-78
2022/10/17 03:00:08;;;;;;;8.00;6.00;;;;;;;13.49;100.00;101452.59;5012339;28;20024;-78
2022/10/17 03:02:38;;;;;;;8.25;6.28;;;;;;;13.52;100.00;101441.22;5011711;28;20025;-78
2022/10/17 03:05:04;;;;;;;8.85;6.28;;;;;;;13.54;100.00;101442.03;5011390;28;20060;-78
2022/10/17 03:07:29;;;;;;;9.55;6.93;;;;;;;13.57;100.00;101438.47;5012023;28;20385;-78
2022/10/17 03:09:54;;;;;;;10.52;6.38;;;;;;;13.58;100.00;101442.81;5012669;28;20386;-78
2022/10/17 03:12:20;;;;;;;8.25;6.20;;;;;;;13.59;100.00;101441.91;5011216;28;20030;-78
2022/10/17 03:14:45;;;;;;;9.07;6.32;;;;;;;13.59;100.00;101436.66;5010141;28;20042;-78
2022/10/17 03:17:10;;;;;;;8.27;6.13;;;;;;;13.60;100.00;101443.63;5011707;28;20420;-78
2022/10/17 03:19:35;;;;;;;9.98;6.38;;;;;;;13.59;100.00;101440.13;5011944;28;20034;-78
2022/10/17 03:22:01;;;;;;;7.47;6.05;;;;;;;13.60;100.00;101443.63;5011317;28;20385;-78
2022/10/17 03:24:26;;;;;;;8.18;6.00;;;;;;;13.61;100.00;101446.16;5014439;28;20025;-78
2022/10/17 03:26:51;;;;;;;8.93;6.30;;;;;;;13.62;100.00;101449.66;5015762;28;20026;-78
2022/10/17 03:29:17;;;;;;;9.02;6.25;;;;;;;13.62;100.00;101442.66;5015388;28;20026;-78
2022/10/17 03:31:42;;;;;;;7.72;5.90;;;;;;;13.63;100.00;101448.75;5014055;28;20017;-78
2022/10/17 03:34:07;;;;;;;7.63;5.72;;;;;;;13.64;100.00;101450.47;5014777;28;20489;-78
2022/10/17 03:36:32;;;;;;;8.90;6.20;;;;;;;13.64;100.00;101450.47;5014440;28;20075;-78
2022/10/17 03:38:58;;;;;;;8.95;5.95;;;;;;;13.67;100.00;101455.59;5015378;28;20029;-78
2022/10/17 03:41:23;;;;;;;9.52;6.40;;;;;;;13.68;100.00;101457.31;5015743;28;20068;-78
2022/10/17 03:43:48;;;;;;;10.43;6.68;;;;;;;13.69;100.00;101459.03;5018434;28;20057;-78
2022/10/17 03:46:13;;;;;;;9.05;6.15;;;;;;;13.69;100.00;101453.78;4995868;28;20621;-78
2022/10/17 03:48:39;;;;;;;9.48;6.18;;;;;;;13.69;100.00;101448.56;5014230;28;20036;-78
2022/10/17 03:51:07;;;;;;;8.07;6.00;;;;;;;13.70;100.00;101454.66;5013554;28;20107;-78
2022/10/17 03:53:33;;;;;;;8.60;6.18;;;;;;;13.70;100.00;101445.06;5011975;28;20030;-78
2022/10/17 03:56:17;;;;;;;11.07;6.03;;;;;;;13.72;100.00;101442.41;5013470;28;20492;-78
2022/10/17 03:58:43;;;;;;;9.35;5.97;;;;;;;13.73;100.00;101439.72;5013177;28;20033;-78
2022/10/17 04:01:11;;;;;;;8.40;6.07;;;;;;;13.73;100.00;101436.28;5013056;28;20032;-78
2022/10/17 04:03:37;;;;;;;8.73;5.90;;;;;;;13.77;100.00;101437.88;5015160;28;20088;-78
2022/10/17 04:06:03;;;;;;;10.25;6.13;;;;;;;13.77;100.00;101433.53;5014737;28;20034;-78
2022/10/17 04:08:29;;;;;;;9.82;6.07;;;;;;;13.81;100.00;101445.59;5014554;28;20508;-78
2022/10/17 04:10:59;;;;;;;10.38;6.22;;;;;;;13.85;100.00;101450.72;5014321;28;20026;-78
2022/10/17 04:13:25;;;;;;;9.77;5.75;;;;;;;13.91;100.00;101448.81;5013905;28;20069;-78
2022/10/17 04:15:56;;;;;;;9.32;6.00;;;;;;;13.95;100.00;101445.19;5012833;28;20025;-78
2022/10/17 04:18:22;;;;;;;10.00;6.32;;;;;;;14.02;100.00;101456.31;5014133;28;20041;-78
2022/10/17 04:20:47;;;;;;;10.55;6.20;;;;;;;14.06;100.00;101452.69;5013805;28;20385;-78
2022/10/17 04:23:12;;;;;;;7.50;5.95;;;;;;;14.14;100.00;101449.00;5014603;28;20106;-78
2022/10/17 04:25:37;;;;;;;8.13;6.07;;;;;;;14.21;100.00;101451.38;5003748;28;20029;-78
2022/10/17 04:28:03;;;;;;;7.75;5.80;;;;;;;14.26;100.00;101454.69;5013890;28;20091;-78
2022/10/17 04:30:28;;;;;;;7.78;5.93;;;;;;;14.30;100.00;101468.56;5013950;28;20400;-78
2022/10/17 04:32:53;;;;;;;9.65;6.00;;;;;;;14.33;100.00;101476.31;5013924;28;20113;-78
2022/10/17 04:35:18;;;;;;;9.88;5.82;;;;;;;14.35;100.00;101465.78;5020546;28;20477;-78
2022/10/17 04:37:44;;;;;;;8.20;6.15;;;;;;;14.36;100.00;101468.34;5014810;28;20029;-78
2022/10/17 04:40:09;;;;;;;8.40;6.15;;;;;;;14.36;100.00;101473.56;5014504;28;20489;-78
2022/10/17 04:42:35;;;;;;;9.10;5.63;;;;;;;14.36;100.00;101481.44;5014492;28;20044;-78
2022/10/17 04:45:00;;;;;;;9.00;5.70;;;;;;;14.38;100.00;101476.16;5014409;28;20045;-78
2022/10/17 04:47:25;;;;;;;9.25;5.75;;;;;;;14.38;100.00;101477.00;5012726;28;20042;-78
2022/10/17 04:49:51;;;;;;;8.27;5.65;;;;;;;14.37;100.00;101474.44;5013927;28;20033;-78
2022/10/17 04:52:16;;;;;;;8.38;5.72;;;;;;;14.35;100.00;101478.88;5012590;28;20030;-78
2022/10/17 04:54:41;;;;;;;8.68;5.70;;;;;;;14.35;100.00;101484.13;5012519;28;20065;-78
2022/10/17 04:57:06;;;;;;;7.47;5.75;;;;;;;14.34;100.00;101493.75;5010473;28;20030;-78
2022/10/17 04:59:32;;;;;;;7.95;5.47;;;;;;;14.34;100.00;101496.34;5011892;28;20050;-78
2022/10/17 05:01:57;;;;;;;8.68;5.63;;;;;;;14.33;100.00;101492.03;5010819;28;20025;-79
2022/10/17 05:04:24;;;;;;;8.80;5.50;;;;;;;14.33;100.00;101497.25;5011099;28;20033;-78
2022/10/17 05:06:49;;;;;;;6.90;5.10;;;;;;;14.35;100.00;101507.66;4996190;28;20045;-78
2022/10/17 05:09:14;;;;;;;10.23;5.80;;;;;;;14.36;100.00;101507.59;5012351;28;20026;-78
2022/10/17 05:11:42;;;;;;;10.23;5.47;;;;;;;14.36;100.00;101507.59;5012755;28;20543;-78
2022/10/17 05:14:07;;;;;;;9.05;5.15;;;;;;;14.37;100.00;101508.47;5013263;28;20030;-78
2022/10/17 05:16:32;;;;;;;7.28;5.15;;;;;;;14.37;100.00;101513.72;5014455;28;20176;-78
2022/10/17 05:18:58;;;;;;;9.90;5.47;;;;;;;14.37;100.00;101511.09;5012925;28;20022;-78
2022/10/17 05:21:24;;;;;;;8.35;5.40;;;;;;;14.36;100.00;101507.59;5014480;28;20488;-78
2022/10/17 05:23:50;;;;;;;7.03;5.38;;;;;;;14.35;100.00;101505.91;4994813;28;20030;-78
2022/10/17 05:26:16;;;;;;;8.00;4.78;;;;;;;14.35;100.00;101505.91;5013076;28;20038;-78
2022/10/17 05:28:41;;;;;;;7.10;5.40;;;;;;;14.36;100.00;101518.06;5011016;28;20543;-78
2022/10/17 05:31:08;;;;;;;8.18;5.63;;;;;;;14.36;100.00;101512.84;5011450;28;20030;-78
2022/10/17 05:33:35;;;;;;;8.40;5.22;;;;;;;14.37;100.00;101517.19;5013256;28;20026;-78
2022/10/17 05:36:00;;;;;;;7.47;5.45;;;;;;;14.38;100.00;101521.50;5012746;28;20486;-78
2022/10/17 05:38:27;;;;;;;8.35;5.70;;;;;;;14.40;100.00;101524.09;5003386;28;20108;-78
2022/10/17 05:40:57;;;;;;;7.20;5.32;;;;;;;14.41;100.00;101531.06;5014057;28;20157;-78
2022/10/17 05:43:22;;;;;;;7.30;5.57;;;;;;;14.39;100.00;101523.22;5012413;28;20478;-78
2022/10/17 05:45:47;;;;;;;7.63;5.28;;;;;;;14.40;100.00;101524.94;4995556;28;20046;-78
2022/10/17 05:48:13;;;;;;;6.55;5.05;;;;;;;14.42;100.00;101523.13;4993710;28;20100;-78
2022/10/17 05:50:38;;;;;;;6.63;4.88;;;;;;;14.42;100.00;101524.91;5013619;28;20029;-78
2022/10/17 05:53:03;;;;;;;8.90;5.03;;;;;;;14.42;100.00;101535.38;5012215;28;20489;-78
2022/10/17 05:55:28;;;;;;;7.00;4.93;;;;;;;14.42;100.00;101533.59;5011809;28;20026;-78
2022/10/17 05:57:54;;;;;;;6.93;5.10;;;;;;;14.42;100.00;101533.59;5011908;28;20087;-78
2022/10/17 06:00:20;;;;;;;7.72;4.90;;;;;;;14.42;100.00;101533.59;5009202;28;20041;-78
2022/10/17 06:02:46;;;;;;;8.02;5.20;;;;;;;14.42;100.00;101548.47;5008082;28;20053;-78
2022/10/17 06:05:12;;;;;;;8.45;5.25;;;;;;;14.42;100.00;101544.09;5012803;28;20109;-78
2022/10/17 06:07:37;;;;;;;9.25;4.55;;;;;;;14.42;100.00;101538.84;5013546;28;20032;-78
2022/10/17 06:10:04;;;;;;;7.10;4.88;;;;;;;14.42;100.00;101549.31;4994230;28;20073;-78
2022/10/17 06:12:30;;;;;;;6.88;5.25;;;;;;;14.42;100.00;101544.09;5011132;28;20034;-78
2022/10/17 06:14:55;;;;;;;5.95;4.85;;;;;;;14.42;100.00;101533.59;5011282;28;20094;-78
2022/10/17 06:17:20;;;;;;;8.32;5.18;;;;;;;14.44;100.00;101540.56;5012326;28;20409;-78
2022/10/17 06:19:46;;;;;;;6.35;4.65;;;;;;;14.46;100.00;101544.00;5007509;28;20026;-78
2022/10/17 06:22:12;;;;;;;6.57;4.80;;;;;;;14.45;100.00;101542.28;5012750;28;20428;-78
2022/10/17 06:24:37;;;;;;;8.45;4.97;;;;;;;14.46;100.00;101552.69;4998020;28;20021;-78
2022/10/17 06:27:02;;;;;;;7.30;4.95;;;;;;;14.48;100.00;101560.50;5010292;28;20354;-78
2022/10/17 06:29:28;;;;;;;6.45;5.00;;;;;;;14.49;100.00;101554.38;5011968;28;20026;-78
2022/10/17 06:31:53;;;;;;;5.90;4.75;;;;;;;14.51;100.00;101548.19;5011584;28;20065;-78
2022/10/17 06:34:18;;;;;;;7.03;4.88;;;;;;;14.53;100.00;101542.88;5012914;28;20022;-78
2022/10/17 06:36:44;;;;;;;6.07;4.70;;;;;;;14.55;100.00;101551.56;5009939;28;20030;-78
2022/10/17 06:39:09;;;;;;;7.70;4.82;;;;;;;14.57;100.00;101557.59;5011077;28;20057;-78
2022/10/17 06:41:34;;;;;;;6.47;4.80;;;;;;;14.59;100.00;101550.56;5009635;28;20028;-78
2022/10/17 06:43:59;;;;;;;7.20;4.90;;;;;;;14.61;100.00;101548.75;5012897;28;20022;-78
2022/10/17 06:46:25;;;;;;;7.45;4.45;;;;;;;14.64;100.00;101553.03;5007526;28;20042;-78
2022/10/17 06:48:51;;;;;;;7.63;4.88;;;;;;;14.65;100.00;101550.38;4999262;28;20075;-78
2022/10/17 06:51:16;;;;;;;6.80;4.85;;;;;;;14.68;100.00;101552.94;5005130;28;20382;-79
2022/10/17 06:53:42;;;;;;;6.63;4.53;;;;;;;14.71;100.00;101563.28;5007892;28;20060;-79
2022/10/17 06:56:09;;;;;;;6.93;5.00;;;;;;;14.74;100.00;101558.88;5032631;28;20029;-79
2022/10/17 06:58:38;;;;;;;8.07;5.18;;;;;;;14.77;100.00;101564.00;5014649;28;20068;-80
2022/10/17 07:01:12;;;;;;;8.05;4.97;;;;;;;14.80;100.00;101570.00;4998476;28;20049;-79
2022/10/17 07:03:39;;;;;;;7.25;4.82;;;;;;;14.85;100.00;101575.13;5013850;28;20033;-78
2022/10/17 07:06:05;;;;;;;7.40;5.18;;;;;;;14.89;99.95;101571.47;5018560;28;20056;-79
2022/10/17 07:08:30;;;;;;;7.22;5.25;;;;;;;14.92;99.88;101563.50;5018469;28;20105;-79
2022/10/17 07:10:56;;;;;;;7.45;5.20;;;;;;;14.98;99.76;101562.44;5014399;28;20068;-78
2022/10/17 07:13:22;;;;;;;7.05;4.57;;;;;;;15.02;99.66;101570.19;5012251;28;20531;-78
2022/10/17 07:15:47;;;;;;;6.40;4.88;;;;;;;15.06;99.58;101564.81;5012623;28;20021;-79
2022/10/17 07:18:13;;;;;;;6.18;4.43;;;;;;;15.07;99.38;101562.16;5013102;28;20034;-78
2022/10/17 07:20:39;;;;;;;8.38;4.90;;;;;;;15.10;99.13;101569.06;5012978;28;20521;-78
2022/10/17 07:23:04;;;;;;;6.28;4.72;;;;;;;15.12;99.00;101581.19;5012520;28;20091;-78
2022/10/17 07:25:30;;;;;;;7.47;4.90;;;;;;;15.14;98.88;101583.78;5012842;28;20029;-78
2022/10/17 07:27:55;;;;;;;7.57;4.55;;;;;;;15.17;98.67;101588.94;5013304;28;20113;-77
2022/10/17 07:30:21;;;;;;;5.72;4.80;;;;;;;15.19;98.65;101584.50;5013727;28;20060;-79
2022/10/17 07:32:47;;;;;;;9.48;4.78;;;;;;;15.20;98.68;101601.06;5013195;28;20061;-78
2022/10/17 07:35:13;;;;;;;7.40;5.00;;;;;;;15.21;98.36;101595.75;5012929;28;20072;-79
2022/10/17 07:37:38;;;;;;;5.78;4.60;;;;;;;15.22;98.33;101602.72;5011385;28;20034;-79
2022/10/17 07:40:06;;;;;;;10.30;4.90;;;;;;;15.24;98.36;101608.78;5012660;28;20516;-78
2022/10/17 07:42:33;;;;;;;5.22;4.35;;;;;;;15.25;98.06;101614.88;5013094;28;20113;-79
2022/10/17 07:44:58;;;;;;;7.20;4.72;;;;;;;15.25;98.02;101623.59;5011426;28;20049;-78
2022/10/17 07:47:23;;;;;;;6.18;4.60;;;;;;;15.27;97.81;101641.91;5013081;28;20050;-78
2022/10/17 07:49:49;;;;;;;8.30;4.55;;;;;;;15.28;97.58;101657.56;5012996;28;20076;-78
2022/10/17 07:52:15;;;;;;;6.72;4.70;;;;;;;15.29;97.60;101680.25;5011779;28;20025;-79
2022/10/17 07:54:41;;;;;;;6.07;4.70;;;;;;;15.31;97.39;101696.81;5012743;28;20029;-83
2022/10/17 07:57:06;;;;;;;7.45;5.18;;;;;;;15.32;97.51;101701.16;5012870;28;20129;-78
2022/10/17 07:59:33;;;;;;;7.18;4.57;;;;;;;15.35;97.33;101708.03;5012388;28;20489;-78
2022/10/17 08:01:59;;;;;;;6.97;4.60;;;;;;;15.35;96.94;101717.69;5012394;28;20026;-78
2022/10/17 08:04:25;;;;;;;7.00;4.65;;;;;;;15.36;97.24;101714.16;5012098;28;20022;-79
2022/10/17 08:06:51;;;;;;;6.50;4.53;;;;;;;15.38;97.05;101720.19;5013060;28;20056;-78
2022/10/17 08:09:16;;;;;;;10.02;4.35;;;;;;;15.40;96.88;101723.63;5011183;28;20030;-78
2022/10/17 08:11:42;;;;;;;8.50;4.40;;;;;;;15.42;96.66;101729.69;5011193;28;20034;-78
2022/10/17 08:14:12;;;;;;;7.55;4.30;;;;;;;15.46;95.91;101728.69;5008794;28;20030;-78
2022/10/17 08:16:37;;;;;;;9.07;4.50;;;;;;;15.50;96.60;101717.19;5009554;28;20022;-80
2022/10/17 08:19:02;;;;;;;7.93;4.47;;;;;;;15.55;96.16;101725.75;5009588;28;20032;-78
2022/10/17 08:21:28;;;;;;;8.05;4.32;;;;;;;15.59;96.01;101724.75;5009484;28;20030;-78
2022/10/17 08:23:54;;;;;;;8.90;4.30;;;;;;;15.62;95.54;101740.41;5007179;28;20045;-77
2022/10/17 08:26:20;;;;;;;5.53;4.05;;;;;;;15.65;95.51;101757.78;5008691;28;20038;-77
2022/10/17 08:28:45;;;;;;;5.50;4.20;;;;;;;15.65;95.39;101755.16;5009182;28;20115;-77
2022/10/17 08:31:13;;;;;;;10.63;4.00;;;;;;;15.67;95.80;101776.13;5008810;28;20026;-77
2022/10/17 08:33:40;;;;;;;6.63;4.40;;;;;;;15.68;95.37;101789.16;5009597;28;20116;-77
2022/10/17 08:36:06;;;;;;;6.88;4.22;;;;;;;15.68;95.34;101783.94;5007945;28;20026;-77
2022/10/17 08:38:33;;;;;;;7.55;4.55;;;;;;;15.68;95.67;101783.94;5009001;28;20037;-77
2022/10/17 08:41:05;;;;;;;5.88;3.97;;;;;;;15.69;95.83;101776.94;5008921;28;20030;-77
2022/10/17 08:43:55;;;;;;;8.05;3.88;;;;;;;15.71;95.78;101788.22;5008391;28;20842;-77
2022/10/17 08:46:20;;;;;;;8.68;4.05;;;;;;;15.71;95.79;101793.47;4993799;28;20034;-77
2022/10/17 08:48:48;;;;;;;8.55;4.30;;;;;;;15.71;95.95;101785.59;5008335;28;20033;-78
2022/10/17 08:51:21;;;;;;;5.07;3.97;;;;;;;15.72;95.91;101790.78;5003351;28;20046;-78
2022/10/17 08:53:56;;;;;;;6.95;4.38;;;;;;;15.73;96.37;101786.38;5003685;28;20033;-78
2022/10/17 08:56:49;;;;;;;8.45;4.18;;;;;;;15.73;96.57;101787.25;5004151;28;20723;-78
2022/10/17 08:59:24;;;;;;;6.57;4.13;;;;;;;15.73;96.40;101796.88;4998424;28;20049;-77
2022/10/17 09:02:10;;;;;;;7.50;4.80;;;;;;;15.75;96.53;101797.69;5003093;28;20034;-77
2022/10/17 09:05:03;;;;;;;6.13;4.38;;;;;;;15.76;96.38;101783.69;5002729;28;20710;-77
2022/10/17 09:07:38;;;;;;;7.57;4.45;;;;;;;15.76;96.83;101781.06;5005455;28;20495;-78
2022/10/17 09:10:26;;;;;;;5.75;4.20;;;;;;;15.75;97.14;101795.06;5008593;28;20037;-77
2022/10/17 09:13:06;;;;;;;8.35;4.10;;;;;;;15.74;97.26;101783.75;5003894;28;20045;-78
2022/10/17 09:16:00;;;;;;;6.00;4.40;;;;;;;15.72;97.66;101785.56;5003611;28;20396;-78
2022/10/17 09:18:38;;;;;;;6.53;4.40;;;;;;;15.71;97.61;101801.34;5003401;28;20104;-78
2022/10/17 09:21:18;;;;;;;6.00;4.18;;;;;;;15.69;97.82;101808.41;5004027;28;20036;-77
2022/10/17 09:23:49;;;;;;;6.70;4.05;;;;;;;15.67;97.92;101807.59;5001835;28;20435;-78
2022/10/17 09:26:15;;;;;;;7.53;4.75;;;;;;;15.65;98.11;101825.97;4986406;28;20030;-77
2022/10/17 09:28:41;;;;;;;9.00;4.30;;;;;;;15.66;98.21;101847.84;5002732;28;20112;-78
2022/10/17 09:31:23;;;;;;;6.85;4.50;;;;;;;15.65;98.70;101857.47;5002476;28;20029;-78
2022/10/17 09:33:51;;;;;;;8.50;4.63;;;;;;;15.62;98.78;101903.03;5002409;28;20119;-79
2022/10/17 09:36:20;;;;;;;7.90;4.43;;;;;;;15.60;99.14;101862.84;5003045;28;20366;-78
2022/10/17 09:38:52;;;;;;;11.25;5.00;;;;;;;15.58;99.55;101780.72;5001799;28;20323;-78
2022/10/17 09:41:23;;;;;;;9.60;5.07;;;;;;;15.57;99.74;101767.69;4999886;28;20029;-78
2022/10/17 09:43:54;;;;;;;9.63;4.38;;;;;;;15.57;99.86;101765.91;5001107;28;20136;-79
2022/10/17 09:46:31;;;;;;;;;;;;;;;15.60;98.87;101770.22;5004816;28;20077;-79
2022/10/17 09:49:05;;;;;;;6.80;4.22;;;;;;;15.59;99.90;101766.72;5006864;28;19940;-78
2022/10/17 09:51:31;;;;;;;7.60;4.00;;;;;;;15.60;100.00;101786.78;5006505;28;20033;-78
2022/10/17 09:54:01;;;;;;;7.43;4.03;;;;;;;15.61;100.00;101803.41;5003591;28;20394;-78
2022/10/17 09:56:27;;;;;;;10.43;4.55;;;;;;;15.60;100.00;101827.91;5005592;28;20045;-78
2022/10/17 09:58:56;;;;;;;8.75;4.72;;;;;;;15.60;100.00;101822.66;5003640;28;20022;-79
2022/10/17 10:01:30;;;;;;;8.07;4.28;;;;;;;15.59;100.00;101827.03;5001920;28;20511;-79
2022/10/17 10:04:25;;;;;;;6.05;4.28;;;;;;;15.59;100.00;101824.41;5007378;28;20057;-79
2022/10/17 10:07:05;;;;;;;7.30;4.32;;;;;;;15.59;100.00;101827.03;4986950;28;20084;-78
2022/10/17 10:09:33;;;;;;;7.43;4.38;;;;;;;15.60;100.00;101820.88;5005814;28;20030;-78
2022/10/17 10:12:05;;;;;;;6.00;4.43;;;;;;;15.61;100.00;101799.00;5004007;28;20041;-78
2022/10/17 10:14:36;;;;;;;9.35;4.43;;;;;;;15.65;100.00;101799.75;5006751;28;20559;-78
2022/10/17 10:17:04;;;;;;;8.00;4.57;;;;;;;15.68;100.00;101809.31;5007160;28;20045;-79
2022/10/17 10:19:31;;;;;;;6.00;4.38;;;;;;;15.72;100.00;101813.53;5006285;28;20034;-78
2022/10/17 10:22:00;;;;;;;6.75;4.20;;;;;;;15.74;100.00;101819.59;5005679;28;20034;-78
2022/10/17 10:24:26;;;;;;;5.85;4.40;;;;;;;15.76;100.00;101820.41;5005809;28;20033;-79
2022/10/17 10:26:53;;;;;;;6.75;4.70;;;;;;;15.75;100.00;101835.31;5004365;28;20557;-78
2022/10/17 10:29:34;;;;;;;7.05;4.82;;;;;;;15.74;100.00;101840.56;5005886;28;20040;-78
2022/10/17 10:32:17;;;;;;;8.80;4.75;;;;;;;15.74;100.00;101840.56;4985568;28;20446;-78
2022/10/17 10:34:51;;;;;;;7.20;4.85;;;;;;;15.75;100.00;101852.78;5004454;28;20508;-79
2022/10/17 10:37:20;;;;;;;6.60;4.78;;;;;;;15.76;100.00;101858.00;5005438;28;20026;-78
2022/10/17 10:39:52;;;;;;;8.50;4.82;;;;;;;15.80;100.00;101860.53;5006640;28;20037;-78
2022/10/17 10:42:19;;;;;;;7.70;4.75;;;;;;;15.79;100.00;101859.66;5004164;28;20022;-78
2022/10/17 10:44:45;;;;;;;7.18;4.25;;;;;;;15.80;100.00;101861.38;5007274;28;20665;-78
2022/10/17 10:47:25;;;;;;;8.68;4.60;;;;;;;15.81;100.00;101865.72;5005876;28;20054;-78
2022/10/17 10:50:05;;;;;;;7.35;4.70;;;;;;;15.83;100.00;101869.16;5006845;28;20030;-78
2022/10/17 10:52:44;;;;;;;6.72;4.32;;;;;;;15.83;100.00;101878.78;5002269;28;20199;-78
2022/10/17 10:55:25;;;;;;;7.63;4.53;;;;;;;15.83;100.00;101895.41;5005303;28;20055;-78
2022/10/17 10:57:57;;;;;;;8.55;4.90;;;;;;;15.81;100.00;101899.84;5004777;28;20065;-78
2022/10/17 11:00:26;;;;;;;8.27;4.15;;;;;;;15.81;100.00;101899.84;5001095;28;21757;-78
2022/10/17 11:02:56;;;;;;;7.72;4.60;;;;;;;15.80;100.00;101905.16;5000381;28;20409;-78
2022/10/17 11:05:47;;;;;;;8.30;4.38;;;;;;;15.80;100.00;101903.38;5000683;28;20033;-77
2022/10/17 11:08:30;;;;;;;7.68;4.65;;;;;;;15.80;100.00;101898.13;5004073;28;20448;-79
2022/10/17 11:11:02;;;;;;;7.32;4.15;;;;;;;15.79;100.00;101904.28;5003981;28;20030;-78
2022/10/17 11:13:37;;;;;;;6.30;4.25;;;;;;;15.79;100.00;101906.91;5005688;28;20499;-77
2022/10/17 11:16:26;;;;;;;6.82;4.10;;;;;;;15.79;100.00;101927.88;5006233;28;20131;-78
2022/10/17 11:19:01;;;;;;;7.63;4.35;;;;;;;15.79;100.00;101917.38;5005582;28;20029;-78
2022/10/17 11:21:45;;;;;;;6.88;4.13;;;;;;;15.80;100.00;101932.22;5004159;28;20129;-78
2022/10/17 11:24:13;;;;;;;7.35;4.47;;;;;;;15.81;100.00;101933.06;5004203;28;20112;-78
2022/10/17 11:26:49;;;;;;;7.18;4.32;;;;;;;15.81;100.00;101933.94;5001191;28;20092;-78
2022/10/17 11:29:14;;;;;;;7.60;4.80;;;;;;;15.82;100.00;101935.66;5002519;28;20712;-78
2022/10/17 11:31:46;;;;;;;7.15;4.45;;;;;;;15.82;100.00;101943.53;5001064;28;20038;-78